Saratoga Springs, NY

3:48 PM EST on November 27, 2014 (GMT -0500)
KNYSARAT7 | Change Station
CLOSE
Current Station
Personal Weather Station
Location: SARATOGA SPRINGS, NY
Elevation: 309 ft
Nearby Weather Stations

Elev 309 ft 43.06 °N, 73.78 °W | Updated 3 minutes ago

Snow
Snow
30.1 °F
Feels Like 30 °F
N
0.0
Wind Variable Wind from ENE
Gusts 0.0 mph

Today
High -- | Low -- °F
--% Chance of Precip.
Yesterday
High -- | Low -- °F
Precip. -- in
7:02 AM 4:22 PM
Waxing Crescent, 32% visible
Pressure 30.01 in
Visibility 1.5 miles
Clouds Scattered Clouds 1000 ft
Mostly Cloudy 1800 ft
Overcast 2500 ft
Windchill 30 °F
Dew Point 26 °F
Humidity 84%
Rainfall 0.00 in
Snow Depth Not available.
UV 0 out of 12
Pollen .10 out of 12
Air Quality Not available.
Flu Activity Not available.
METAR KSCH 271950Z 02004KT 1 1/2SM -SN BR SCT010 BKN018 OVC025 M01/M03 A3001

More Conditions Fewer Conditions

Pressure 30.01 in
Visibility 1.5 miles
Clouds Scattered Clouds 1000 ft
Mostly Cloudy 1800 ft
Overcast 2500 ft
Windchill 30 °F
Dew Point 26 °F
Humidity 84%
Rainfall 0.00 in
Snow Depth Not available.
UV 0 out of 12
Pollen .10 out of 12
Air Quality Not available.
Flu Activity Not available.
METAR KSCH 271950Z 02004KT 1 1/2SM -SN BR SCT010 BKN018 OVC025 M01/M03 A3001

More Conditions Fewer Conditions

10-Day Weather Forecast

Almanac

Astronomy

Nov. 27, 2014 Rise Set
Actual Time
Civil Twilight
Nautical Twilight
Astronomical Twilight
Moon
Length of Visible Light
Length of Day
Tomorrow will be .
, % of the Moon is Illuminated

Today's Extremes

State Highs State Lows

Community

WunderPhotos

Upload Photos

1,774,100 photos uploaded!

WunderBlogs® & News

Nearby

Air Quality

  Air Quality AQ Index Pollutant
Not available.

Snow Depth

Station Depth Elevation

Earthquake Activity

City Distance Mag. Time & Date
Minimum magnitude displayed is 2.5.

Coastal Water Temperatures

Place Temperature

Nearby Weather Stations